createdAt,value
2019-04-10T00:02:51.000Z,1007.348
2019-04-10T00:12:51.000Z,1007.331
2019-04-10T00:22:53.000Z,1007.4
2019-04-10T00:32:51.000Z,1007.414
2019-04-10T00:42:51.000Z,1007.453
2019-04-10T00:52:51.000Z,1007.501
2019-04-10T01:02:51.000Z,1007.479
2019-04-10T01:12:51.000Z,1007.499
2019-04-10T01:22:51.000Z,1007.459
2019-04-10T01:32:51.000Z,1007.436
2019-04-10T01:42:51.000Z,1007.48
2019-04-10T01:52:51.000Z,1007.491
2019-04-10T02:02:51.000Z,1007.51
2019-04-10T02:12:51.000Z,1007.499
2019-04-10T02:22:51.000Z,1007.552
2019-04-10T02:32:51.000Z,1007.541
2019-04-10T02:42:53.000Z,1007.498
2019-04-10T02:52:51.000Z,1007.547
2019-04-10T03:02:52.000Z,1007.481
2019-04-10T03:12:52.000Z,1007.538
2019-04-10T03:22:52.000Z,1007.578
2019-04-10T03:32:52.000Z,1007.597
2019-04-10T03:42:52.000Z,1007.519
2019-04-10T03:52:52.000Z,1007.517
2019-04-10T04:02:52.000Z,1007.628
2019-04-10T04:12:53.000Z,1007.665
2019-04-10T04:22:52.000Z,1007.708
2019-04-10T04:42:53.000Z,1007.935
2019-04-10T04:52:52.000Z,1008.027
2019-04-10T05:02:53.000Z,1008.187
2019-04-10T05:12:53.000Z,1008.309
2019-04-10T05:22:52.000Z,1008.386
2019-04-10T05:32:53.000Z,1008.593
2019-04-10T05:42:52.000Z,1008.71
2019-04-10T05:52:55.000Z,1008.845
2019-04-10T06:02:52.000Z,1008.912
2019-04-10T06:12:52.000Z,1009.053
2019-04-10T06:22:52.000Z,1009.033
2019-04-10T06:32:52.000Z,1009.05
2019-04-10T06:42:54.000Z,1009.106
2019-04-10T06:52:52.000Z,1009.085
2019-04-10T07:02:52.000Z,1009.14
2019-04-10T07:22:52.000Z,1009.16
2019-04-10T07:32:53.000Z,1009.173
2019-04-10T07:42:52.000Z,1009.255
2019-04-10T07:52:52.000Z,1009.253
2019-04-10T08:02:54.000Z,1009.341
2019-04-10T08:22:52.000Z,1009.363
2019-04-10T08:42:54.000Z,1009.432
2019-04-10T08:52:52.000Z,1009.458
2019-04-10T09:02:52.000Z,1009.494
2019-04-10T09:12:52.000Z,1009.523
2019-04-10T09:32:52.000Z,1009.462
2019-04-10T09:42:52.000Z,1009.456
2019-04-10T09:52:52.000Z,1009.429
2019-04-10T10:02:52.000Z,1009.385
2019-04-10T10:12:53.000Z,1009.41
2019-04-10T10:22:53.000Z,1009.306
2019-04-10T10:32:53.000Z,1009.397
2019-04-10T10:42:52.000Z,1009.442
2019-04-10T10:52:52.000Z,1009.468
2019-04-10T11:02:53.000Z,1009.457
2019-04-10T11:12:52.000Z,1009.443
2019-04-10T11:22:53.000Z,1009.51
2019-04-10T11:32:53.000Z,1009.566
2019-04-10T11:42:53.000Z,1009.638
2019-04-10T11:52:53.000Z,1009.641
2019-04-10T12:02:53.000Z,1009.627
2019-04-10T12:12:53.000Z,1009.672
2019-04-10T12:22:53.000Z,1009.683
2019-04-10T12:32:53.000Z,1009.734
2019-04-10T12:42:53.000Z,1009.728
2019-04-10T12:52:53.000Z,1009.816
2019-04-10T13:02:53.000Z,1009.807
2019-04-10T13:22:55.000Z,1009.669
2019-04-10T13:32:53.000Z,1009.748
2019-04-10T13:42:55.000Z,1009.686
2019-04-10T13:52:55.000Z,1009.745
2019-04-10T14:02:53.000Z,1009.704
2019-04-10T14:12:53.000Z,1009.697
2019-04-10T14:22:53.000Z,1009.774
2019-04-10T14:32:54.000Z,1009.677
2019-04-10T14:42:53.000Z,1009.89
2019-04-10T14:52:53.000Z,1009.902
2019-04-10T15:02:53.000Z,1009.896
2019-04-10T15:12:53.000Z,1009.914
2019-04-10T15:22:54.000Z,1009.929
2019-04-10T15:32:53.000Z,1010.068
2019-04-10T15:42:53.000Z,1010.084
2019-04-10T15:52:53.000Z,1010.069
2019-04-10T16:02:53.000Z,1010.156
2019-04-10T16:12:53.000Z,1010.135
2019-04-10T16:22:53.000Z,1010.179
2019-04-10T16:32:53.000Z,1010.251
2019-04-10T16:42:54.000Z,1010.262
2019-04-10T16:52:53.000Z,1010.36
2019-04-10T17:02:57.000Z,1010.478
2019-04-10T17:12:53.000Z,1010.514
2019-04-10T17:22:57.000Z,1010.58
2019-04-10T17:32:53.000Z,1010.674
2019-04-10T17:42:53.000Z,1010.717
2019-04-10T17:52:53.000Z,1010.832
2019-04-10T18:02:53.000Z,1010.986
2019-04-10T18:12:53.000Z,1011.122
2019-04-10T18:22:53.000Z,1011.221
2019-04-10T18:32:55.000Z,1011.378
2019-04-10T18:42:54.000Z,1011.528
2019-04-10T18:52:53.000Z,1011.638
2019-04-10T19:02:54.000Z,1011.724
2019-04-10T19:12:53.000Z,1011.78
2019-04-10T19:22:53.000Z,1011.865
2019-04-10T19:32:53.000Z,1011.951
2019-04-10T19:42:54.000Z,1012.028
2019-04-10T19:52:54.000Z,1012.095
2019-04-10T20:02:54.000Z,1012.108
2019-04-10T20:12:55.000Z,1012.192
2019-04-10T20:22:54.000Z,1012.28
2019-04-10T20:32:55.000Z,1012.355
2019-04-10T20:42:54.000Z,1012.438
2019-04-10T21:02:54.000Z,1012.578
2019-04-10T21:12:55.000Z,1012.678
2019-04-10T21:22:54.000Z,1012.737
2019-04-10T21:32:55.000Z,1012.733
2019-04-10T21:42:54.000Z,1012.868
2019-04-10T21:52:54.000Z,1012.942
2019-04-10T22:02:54.000Z,1012.97
2019-04-10T22:12:54.000Z,1012.951
2019-04-10T22:22:55.000Z,1013.017
2019-04-10T22:32:54.000Z,1013.027
2019-04-10T22:42:56.000Z,1013
2019-04-10T22:52:54.000Z,1013.028
2019-04-10T23:02:54.000Z,1013.162
2019-04-10T23:12:54.000Z,1013.159
2019-04-10T23:22:55.000Z,1013.166
2019-04-10T23:32:54.000Z,1013.231
2019-04-10T23:42:54.000Z,1013.248
2019-04-10T23:52:54.000Z,1013.319
